sensor_id;sensor_type;location;lat;lon;timestamp;pressure;altitude;pressure_sealevel;temperature;humidity
44198;BME280;30157;55.512;37.764;2023-03-18T00:02:25;101618.47;;;-3.34;49.43
44198;BME280;30157;55.512;37.764;2023-03-18T00:04:51;101628.34;;;-3.27;49.56
44198;BME280;30157;55.512;37.764;2023-03-18T00:07:18;101608.09;;;-3.48;50.01
44198;BME280;30157;55.512;37.764;2023-03-18T00:09:44;101658.47;;;-3.22;50.14
44198;BME280;30157;55.512;37.764;2023-03-18T00:12:09;101661.63;;;-3.24;49.87
44198;BME280;30157;55.512;37.764;2023-03-18T00:14:36;101658.97;;;-3.26;50.07
44198;BME280;30157;55.512;37.764;2023-03-18T00:17:04;101596.22;;;-3.69;50.31
44198;BME280;30157;55.512;37.764;2023-03-18T00:19:30;101555.03;;;-3.88;50.30
44198;BME280;30157;55.512;37.764;2023-03-18T00:21:58;101655.94;;;-3.32;50.81
44198;BME280;30157;55.512;37.764;2023-03-18T00:24:24;101664.47;;;-3.42;50.53
44198;BME280;30157;55.512;37.764;2023-03-18T00:26:54;101645.31;;;-3.48;50.66
44198;BME280;30157;55.512;37.764;2023-03-18T00:29:20;101668.91;;;-3.39;51.34
44198;BME280;30157;55.512;37.764;2023-03-18T00:31:47;101661.03;;;-3.42;51.19
44198;BME280;30157;55.512;37.764;2023-03-18T00:34:12;101670.19;;;-3.44;51.08
44198;BME280;30157;55.512;37.764;2023-03-18T00:36:40;101666.63;;;-3.46;51.60
44198;BME280;30157;55.512;37.764;2023-03-18T00:39:05;101674.13;;;-3.48;51.37
44198;BME280;30157;55.512;37.764;2023-03-18T00:41:32;101644.44;;;-3.69;51.45
44198;BME280;30157;55.512;37.764;2023-03-18T00:44:00;101679.59;;;-3.53;51.50
44198;BME280;30157;55.512;37.764;2023-03-18T00:46:33;101664.25;;;-3.65;51.91
44198;BME280;30157;55.512;37.764;2023-03-18T00:49:01;101688.88;;;-3.54;51.83
44198;BME280;30157;55.512;37.764;2023-03-18T00:51:31;101640.16;;;-3.81;52.03
44198;BME280;30157;55.512;37.764;2023-03-18T00:54:00;101661.19;;;-3.72;52.24
44198;BME280;30157;55.512;37.764;2023-03-18T00:56:29;101682.25;;;-3.62;52.46
44198;BME280;30157;55.512;37.764;2023-03-18T00:58:56;101471.63;;;-4.87;52.45
44198;BME280;30157;55.512;37.764;2023-03-18T01:01:22;101652.06;;;-3.90;52.66
44198;BME280;30157;55.512;37.764;2023-03-18T01:03:48;101690.13;;;-3.69;52.93
44198;BME280;30157;55.512;37.764;2023-03-18T01:06:18;101684.81;;;-3.73;52.96
44198;BME280;30157;55.512;37.764;2023-03-18T01:08:45;101675.41;;;-3.84;53.25
44198;BME280;30157;55.512;37.764;2023-03-18T01:11:11;101563.00;;;-4.55;52.95
44198;BME280;30157;55.512;37.764;2023-03-18T01:13:38;101662.47;;;-3.97;53.30
44198;BME280;30157;55.512;37.764;2023-03-18T01:16:06;101694.31;;;-3.80;53.30
44198;BME280;30157;55.512;37.764;2023-03-18T01:18:33;101685.81;;;-3.91;53.37
44198;BME280;30157;55.512;37.764;2023-03-18T01:21:00;101670.69;;;-4.00;53.60
44198;BME280;30157;55.512;37.764;2023-03-18T01:23:30;101539.03;;;-4.79;53.89
44198;BME280;30157;55.512;37.764;2023-03-18T01:25:56;101696.84;;;-3.91;53.79
44198;BME280;30157;55.512;37.764;2023-03-18T01:28:22;101688.63;;;-3.98;53.69
44198;BME280;30157;55.512;37.764;2023-03-18T01:30:48;101601.81;;;-4.56;53.88
44198;BME280;30157;55.512;37.764;2023-03-18T01:33:18;101688.84;;;-4.06;54.22
44198;BME280;30157;55.512;37.764;2023-03-18T01:35:44;101718.03;;;-4.00;54.51
44198;BME280;30157;55.512;37.764;2023-03-18T01:38:13;101612.16;;;-4.63;54.28
44198;BME280;30157;55.512;37.764;2023-03-18T01:40:39;101717.03;;;-4.02;54.64
44198;BME280;30157;55.512;37.764;2023-03-18T01:45:35;101731.97;;;-4.06;54.68
44198;BME280;30157;55.512;37.764;2023-03-18T01:48:01;101581.19;;;-4.90;54.59
44198;BME280;30157;55.512;37.764;2023-03-18T01:50:31;101719.16;;;-4.07;54.69
44198;BME280;30157;55.512;37.764;2023-03-18T01:53:16;101720.03;;;-4.07;55.02
44198;BME280;30157;55.512;37.764;2023-03-18T01:55:51;101725.09;;;-4.07;54.85
44198;BME280;30157;55.512;37.764;2023-03-18T01:58:23;101734.88;;;-4.11;54.92
44198;BME280;30157;55.512;37.764;2023-03-18T02:00:54;101712.25;;;-4.29;55.19
44198;BME280;30157;55.512;37.764;2023-03-18T02:03:25;101721.78;;;-4.26;55.07
44198;BME280;30157;55.512;37.764;2023-03-18T02:05:53;101737.38;;;-4.22;55.35
44198;BME280;30157;55.512;37.764;2023-03-18T02:08:19;101743.34;;;-4.21;55.06
44198;BME280;30157;55.512;37.764;2023-03-18T02:10:46;101755.28;;;-4.20;55.20
44198;BME280;30157;55.512;37.764;2023-03-18T02:13:14;101645.53;;;-4.88;55.24
44198;BME280;30157;55.512;37.764;2023-03-18T02:15:51;101715.75;;;-4.47;55.14
44198;BME280;30157;55.512;37.764;2023-03-18T02:18:33;101772.50;;;-4.26;55.29
44198;BME280;30157;55.512;37.764;2023-03-18T02:26:58;101774.97;;;-4.36;55.93
44198;BME280;30157;55.512;37.764;2023-03-18T02:29:33;101656.59;;;-5.07;55.64
44198;BME280;30157;55.512;37.764;2023-03-18T02:32:05;101672.22;;;-5.02;55.82
44198;BME280;30157;55.512;37.764;2023-03-18T02:34:32;101781.16;;;-4.43;55.95
44198;BME280;30157;55.512;37.764;2023-03-18T02:36:58;101775.22;;;-4.44;56.13
44198;BME280;30157;55.512;37.764;2023-03-18T02:39:24;101777.34;;;-4.48;56.25
44198;BME280;30157;55.512;37.764;2023-03-18T02:41:53;101726.66;;;-4.78;56.57
44198;BME280;30157;55.512;37.764;2023-03-18T02:44:19;101783.69;;;-4.53;56.34
44198;BME280;30157;55.512;37.764;2023-03-18T02:47:08;101725.31;;;-4.93;56.44
44198;BME280;30157;55.512;37.764;2023-03-18T02:49:37;101762.63;;;-4.82;56.32
44198;BME280;30157;55.512;37.764;2023-03-18T02:52:04;101788.31;;;-4.58;56.54
44198;BME280;30157;55.512;37.764;2023-03-18T02:54:30;101729.38;;;-4.95;56.60
44198;BME280;30157;55.512;37.764;2023-03-18T02:56:56;101796.53;;;-4.61;56.88
44198;BME280;30157;55.512;37.764;2023-03-18T02:59:25;101796.28;;;-4.64;56.64
44198;BME280;30157;55.512;37.764;2023-03-18T03:01:53;101803.88;;;-4.64;56.89
44198;BME280;30157;55.512;37.764;2023-03-18T03:04:21;101774.81;;;-4.78;56.96
44198;BME280;30157;55.512;37.764;2023-03-18T03:06:48;101779.72;;;-4.79;57.06
44198;BME280;30157;55.512;37.764;2023-03-18T03:09:18;101771.72;;;-4.84;57.19
44198;BME280;30157;55.512;37.764;2023-03-18T03:11:45;101755.44;;;-4.96;57.00
44198;BME280;30157;55.512;37.764;2023-03-18T03:14:16;101819.59;;;-4.68;56.88
44198;BME280;30157;55.512;37.764;2023-03-18T03:16:47;101777.28;;;-4.88;57.35
44198;BME280;30157;55.512;37.764;2023-03-18T03:19:15;101820.19;;;-4.70;57.28
44198;BME280;30157;55.512;37.764;2023-03-18T03:21:40;101788.91;;;-4.90;57.39
44198;BME280;30157;55.512;37.764;2023-03-18T03:24:07;101739.97;;;-5.18;57.83
44198;BME280;30157;55.512;37.764;2023-03-18T03:26:34;101771.00;;;-5.02;57.69
44198;BME280;30157;55.512;37.764;2023-03-18T03:29:03;101781.13;;;-5.02;57.88
44198;BME280;30157;55.512;37.764;2023-03-18T03:31:29;101792.81;;;-4.94;57.53
44198;BME280;30157;55.512;37.764;2023-03-18T03:33:56;101790.16;;;-4.95;57.18
44198;BME280;30157;55.512;37.764;2023-03-18T03:36:21;101816.97;;;-4.78;57.39
44198;BME280;30157;55.512;37.764;2023-03-18T03:38:47;101759.34;;;-5.19;57.48
44198;BME280;30157;55.512;37.764;2023-03-18T03:41:16;101811.50;;;-4.83;57.51
44198;BME280;30157;55.512;37.764;2023-03-18T03:43:41;101823.09;;;-4.76;57.80
44198;BME280;30157;55.512;37.764;2023-03-18T03:46:08;101764.50;;;-5.09;57.87
44198;BME280;30157;55.512;37.764;2023-03-18T03:48:35;101681.53;;;-5.68;57.84
44198;BME280;30157;55.512;37.764;2023-03-18T03:51:04;101818.50;;;-4.80;57.50
44198;BME280;30157;55.512;37.764;2023-03-18T03:53:31;101815.28;;;-4.88;57.79
44198;BME280;30157;55.512;37.764;2023-03-18T03:55:58;101818.16;;;-4.94;57.74
44198;BME280;30157;55.512;37.764;2023-03-18T03:58:25;101803.69;;;-4.95;57.87
44198;BME280;30157;55.512;37.764;2023-03-18T04:00:50;101738.47;;;-5.35;58.06
44198;BME280;30157;55.512;37.764;2023-03-18T04:03:16;101829.25;;;-4.83;58.33
44198;BME280;30157;55.512;37.764;2023-03-18T04:05:42;101789.00;;;-4.99;58.12
44198;BME280;30157;55.512;37.764;2023-03-18T04:08:08;101833.03;;;-4.40;57.85
44198;BME280;30157;55.512;37.764;2023-03-18T04:10:36;101725.59;;;-4.21;56.51
44198;BME280;30157;55.512;37.764;2023-03-18T04:13:05;101801.19;;;-2.95;55.30
44198;BME280;30157;55.512;37.764;2023-03-18T04:15:31;101810.56;;;-2.08;53.20
44198;BME280;30157;55.512;37.764;2023-03-18T04:18:02;101798.88;;;-1.50;51.91
44198;BME280;30157;55.512;37.764;2023-03-18T04:20:36;101727.03;;;-1.34;50.63
44198;BME280;30157;55.512;37.764;2023-03-18T04:23:06;101825.81;;;-0.37;49.17
44198;BME280;30157;55.512;37.764;2023-03-18T04:25:32;101770.44;;;-0.26;48.08
44198;BME280;30157;55.512;37.764;2023-03-18T04:28:00;101808.00;;;0.38;47.15
44198;BME280;30157;55.512;37.764;2023-03-18T04:30:25;101715.69;;;0.20;46.97
44198;BME280;30157;55.512;37.764;2023-03-18T04:33:11;101732.50;;;0.68;44.89
44198;BME280;30157;55.512;37.764;2023-03-18T04:35:39;101823.38;;;1.42;44.53
44198;BME280;30157;55.512;37.764;2023-03-18T04:38:09;101829.56;;;1.72;43.66
44198;BME280;30157;55.512;37.764;2023-03-18T04:40:34;101762.31;;;1.61;42.93
44198;BME280;30157;55.512;37.764;2023-03-18T04:43:00;101680.25;;;1.45;42.31
44198;BME280;30157;55.512;37.764;2023-03-18T04:45:28;101773.91;;;2.11;41.89
44198;BME280;30157;55.512;37.764;2023-03-18T04:47:56;101799.13;;;2.62;40.92
44198;BME280;30157;55.512;37.764;2023-03-18T04:50:23;101825.25;;;2.99;40.41
44198;BME280;30157;55.512;37.764;2023-03-18T04:52:50;101729.03;;;2.61;40.09
44198;BME280;30157;55.512;37.764;2023-03-18T04:55:21;101740.78;;;3.02;39.48
44198;BME280;30157;55.512;37.764;2023-03-18T04:57:48;101789.06;;;3.40;38.75
44198;BME280;30157;55.512;37.764;2023-03-18T05:00:18;101845.97;;;3.79;39.13
44198;BME280;30157;55.512;37.764;2023-03-18T05:02:52;101771.63;;;3.65;38.04
44198;BME280;30157;55.512;37.764;2023-03-18T05:05:21;101842.03;;;4.17;37.65
44198;BME280;30157;55.512;37.764;2023-03-18T05:07:48;101843.41;;;4.27;37.08
44198;BME280;30157;55.512;37.764;2023-03-18T05:10:17;101789.34;;;4.25;37.07
44198;BME280;30157;55.512;37.764;2023-03-18T05:12:44;101804.88;;;4.78;36.45
44198;BME280;30157;55.512;37.764;2023-03-18T05:15:12;101759.03;;;4.87;35.81
44198;BME280;30157;55.512;37.764;2023-03-18T05:17:43;101848.97;;;5.72;35.35
44198;BME280;30157;55.512;37.764;2023-03-18T05:20:09;101849.34;;;5.98;34.84
44198;BME280;30157;55.512;37.764;2023-03-18T05:22:36;101803.16;;;5.85;34.32
44198;BME280;30157;55.512;37.764;2023-03-18T05:25:13;101813.34;;;6.00;33.74
44198;BME280;30157;55.512;37.764;2023-03-18T05:27:39;101852.19;;;6.22;33.69
44198;BME280;30157;55.512;37.764;2023-03-18T05:30:13;101828.47;;;6.31;33.28
44198;BME280;30157;55.512;37.764;2023-03-18T05:32:47;101814.50;;;6.46;33.40
44198;BME280;30157;55.512;37.764;2023-03-18T05:35:13;101852.03;;;7.19;32.78
44198;BME280;30157;55.512;37.764;2023-03-18T05:37:49;101856.91;;;7.55;31.93
44198;BME280;30157;55.512;37.764;2023-03-18T05:40:16;101851.63;;;7.52;31.26
44198;BME280;30157;55.512;37.764;2023-03-18T05:42:55;101734.28;;;7.24;31.32
44198;BME280;30157;55.512;37.764;2023-03-18T05:45:22;101812.78;;;7.71;30.05
44198;BME280;30157;55.512;37.764;2023-03-18T05:47:52;101659.22;;;6.76;30.13
44198;BME280;30157;55.512;37.764;2023-03-18T05:50:39;101774.75;;;7.02;30.15
44198;BME280;30157;55.512;37.764;2023-03-18T05:53:10;101838.59;;;7.49;30.69
44198;BME280;30157;55.512;37.764;2023-03-18T05:55:42;101860.38;;;7.99;29.89
44198;BME280;30157;55.512;37.764;2023-03-18T05:58:08;101768.34;;;7.82;29.66
44198;BME280;30157;55.512;37.764;2023-03-18T06:00:36;101869.91;;;8.70;29.31
44198;BME280;30157;55.512;37.764;2023-03-18T06:03:02;101755.50;;;8.07;28.52
44198;BME280;30157;55.512;37.764;2023-03-18T06:05:28;101812.44;;;7.85;28.94
44198;BME280;30157;55.512;37.764;2023-03-18T06:07:55;101852.34;;;7.92;29.41
44198;BME280;30157;55.512;37.764;2023-03-18T06:10:22;101841.75;;;8.08;29.22
44198;BME280;30157;55.512;37.764;2023-03-18T06:12:50;101803.19;;;8.63;28.82
44198;BME280;30157;55.512;37.764;2023-03-18T06:15:17;101871.63;;;8.95;27.82
44198;BME280;30157;55.512;37.764;2023-03-18T06:17:44;101800.06;;;8.23;28.19
44198;BME280;30157;55.512;37.764;2023-03-18T06:20:13;101830.47;;;8.53;28.16
44198;BME280;30157;55.512;37.764;2023-03-18T06:22:40;101827.66;;;8.47;28.09
44198;BME280;30157;55.512;37.764;2023-03-18T06:25:06;101864.31;;;9.07;28.10
44198;BME280;30157;55.512;37.764;2023-03-18T06:27:36;101881.19;;;9.75;27.31
44198;BME280;30157;55.512;37.764;2023-03-18T06:30:03;101851.59;;;9.97;26.64
44198;BME280;30157;55.512;37.764;2023-03-18T06:32:31;101809.19;;;10.27;27.07
44198;BME280;30157;55.512;37.764;2023-03-18T06:34:59;101869.78;;;10.90;25.48
44198;BME280;30157;55.512;37.764;2023-03-18T06:37:25;101843.00;;;10.59;25.74
44198;BME280;30157;55.512;37.764;2023-03-18T06:39:51;101875.41;;;11.05;25.38
44198;BME280;30157;55.512;37.764;2023-03-18T06:42:17;101785.50;;;10.15;25.47
44198;BME280;30157;55.512;37.764;2023-03-18T06:45:06;101850.59;;;10.85;25.56
44198;BME280;30157;55.512;37.764;2023-03-18T06:47:52;101857.66;;;11.24;25.13
44198;BME280;30157;55.512;37.764;2023-03-18T06:50:18;101870.47;;;11.88;24.90
44198;BME280;30157;55.512;37.764;2023-03-18T06:52:45;101825.91;;;12.12;24.04
44198;BME280;30157;55.512;37.764;2023-03-18T06:55:15;101872.41;;;12.38;23.87
44198;BME280;30157;55.512;37.764;2023-03-18T06:57:43;101795.69;;;12.20;23.76
44198;BME280;30157;55.512;37.764;2023-03-18T07:00:12;101883.25;;;12.59;23.50
44198;BME280;30157;55.512;37.764;2023-03-18T07:02:38;101773.88;;;12.14;23.67
44198;BME280;30157;55.512;37.764;2023-03-18T07:05:05;101858.22;;;12.66;23.09
44198;BME280;30157;55.512;37.764;2023-03-18T07:07:34;101868.59;;;12.63;23.39
44198;BME280;30157;55.512;37.764;2023-03-18T07:10:04;101868.88;;;12.34;23.34
44198;BME280;30157;55.512;37.764;2023-03-18T07:12:31;101751.63;;;11.88;23.20
44198;BME280;30157;55.512;37.764;2023-03-18T07:14:56;101889.22;;;12.98;22.71
44198;BME280;30157;55.512;37.764;2023-03-18T07:17:23;101837.69;;;12.83;22.30
44198;BME280;30157;55.512;37.764;2023-03-18T07:19:49;101887.59;;;12.57;22.52
44198;BME280;30157;55.512;37.764;2023-03-18T07:22:16;101886.38;;;12.86;22.47
44198;BME280;30157;55.512;37.764;2023-03-18T07:24:45;101804.28;;;13.11;22.42
44198;BME280;30157;55.512;37.764;2023-03-18T07:27:12;101799.84;;;13.62;21.49
44198;BME280;30157;55.512;37.764;2023-03-18T07:29:39;101884.03;;;14.08;20.72
44198;BME280;30157;55.512;37.764;2023-03-18T07:32:05;101801.88;;;13.23;20.88
44198;BME280;30157;55.512;37.764;2023-03-18T07:34:30;101853.94;;;13.19;20.92
44198;BME280;30157;55.512;37.764;2023-03-18T07:36:56;101814.53;;;13.54;21.40
44198;BME280;30157;55.512;37.764;2023-03-18T07:39:23;101880.38;;;13.95;19.84
44198;BME280;30157;55.512;37.764;2023-03-18T07:41:49;101854.91;;;13.79;20.03
44198;BME280;30157;55.512;37.764;2023-03-18T07:44:20;101872.53;;;13.95;19.75
44198;BME280;30157;55.512;37.764;2023-03-18T07:46:45;101849.63;;;13.21;19.87
44198;BME280;30157;55.512;37.764;2023-03-18T07:49:11;101876.00;;;12.89;20.03
44198;BME280;30157;55.512;37.764;2023-03-18T07:51:37;101859.78;;;13.05;19.94
44198;BME280;30157;55.512;37.764;2023-03-18T07:54:02;101885.34;;;13.78;19.81
44198;BME280;30157;55.512;37.764;2023-03-18T07:56:29;101868.44;;;14.16;19.44
44198;BME280;30157;55.512;37.764;2023-03-18T07:58:55;101886.91;;;14.27;18.90
44198;BME280;30157;55.512;37.764;2023-03-18T08:01:20;101842.19;;;14.04;18.58
44198;BME280;30157;55.512;37.764;2023-03-18T08:03:49;101889.09;;;13.96;17.76
44198;BME280;30157;55.512;37.764;2023-03-18T08:06:15;101888.84;;;13.27;17.77
44198;BME280;30157;55.512;37.764;2023-03-18T08:08:41;101885.50;;;13.89;17.93
44198;BME280;30157;55.512;37.764;2023-03-18T08:11:07;101874.09;;;13.83;17.83
44198;BME280;30157;55.512;37.764;2023-03-18T08:13:34;101868.94;;;12.82;18.06
44198;BME280;30157;55.512;37.764;2023-03-18T08:16:00;101903.69;;;13.31;17.26
44198;BME280;30157;55.512;37.764;2023-03-18T08:18:26;101825.69;;;12.93;17.37
44198;BME280;30157;55.512;37.764;2023-03-18T08:20:52;101869.78;;;13.86;17.50
44198;BME280;30157;55.512;37.764;2023-03-18T08:23:17;101807.66;;;13.59;18.31
44198;BME280;30157;55.512;37.764;2023-03-18T08:25:47;101899.84;;;14.21;16.73
44198;BME280;30157;55.512;37.764;2023-03-18T08:28:14;101763.44;;;13.11;16.70
44198;BME280;30157;55.512;37.764;2023-03-18T08:30:40;101884.47;;;13.80;17.12
44198;BME280;30157;55.512;37.764;2023-03-18T08:33:06;101889.19;;;13.47;17.10
44198;BME280;30157;55.512;37.764;2023-03-18T08:35:32;101867.50;;;13.50;17.31
44198;BME280;30157;55.512;37.764;2023-03-18T08:37:58;101881.19;;;13.93;16.99
44198;BME280;30157;55.512;37.764;2023-03-18T08:40:24;101687.00;;;13.13;16.73
44198;BME280;30157;55.512;37.764;2023-03-18T08:42:50;101884.75;;;14.67;16.22
44198;BME280;30157;55.512;37.764;2023-03-18T08:45:19;101880.66;;;14.91;15.82
44198;BME280;30157;55.512;37.764;2023-03-18T08:47:45;101861.06;;;14.52;15.59
44198;BME280;30157;55.512;37.764;2023-03-18T08:50:11;101894.81;;;14.35;15.88
44198;BME280;30157;55.512;37.764;2023-03-18T08:52:39;101878.78;;;14.77;16.26
44198;BME280;30157;55.512;37.764;2023-03-18T08:55:07;101863.31;;;14.99;15.94
44198;BME280;30157;55.512;37.764;2023-03-18T08:57:34;101878.50;;;15.40;15.92
44198;BME280;30157;55.512;37.764;2023-03-18T08:59:59;101783.03;;;14.06;16.25
44198;BME280;30157;55.512;37.764;2023-03-18T09:02:25;101871.69;;;14.67;15.92
44198;BME280;30157;55.512;37.764;2023-03-18T09:04:53;101870.94;;;14.74;16.20
44198;BME280;30157;55.512;37.764;2023-03-18T09:07:19;101859.72;;;14.13;16.13
44198;BME280;30157;55.512;37.764;2023-03-18T09:09:45;101858.94;;;14.20;15.98
44198;BME280;30157;55.512;37.764;2023-03-18T09:12:11;101870.25;;;13.59;15.64
44198;BME280;30157;55.512;37.764;2023-03-18T09:14:39;101768.81;;;13.21;16.06
44198;BME280;30157;55.512;37.764;2023-03-18T09:17:06;101866.09;;;13.18;15.94
44198;BME280;30157;55.512;37.764;2023-03-18T09:19:33;101868.72;;;13.20;16.43
44198;BME280;30157;55.512;37.764;2023-03-18T09:21:59;101859.50;;;13.37;16.03
44198;BME280;30157;55.512;37.764;2023-03-18T09:24:25;101813.41;;;13.36;15.88
44198;BME280;30157;55.512;37.764;2023-03-18T09:26:51;101877.16;;;13.05;15.43
44198;BME280;30157;55.512;37.764;2023-03-18T09:29:16;101854.88;;;12.73;15.95
44198;BME280;30157;55.512;37.764;2023-03-18T09:31:42;101853.59;;;12.51;15.75
44198;BME280;30157;55.512;37.764;2023-03-18T09:34:10;101853.72;;;12.57;16.18
44198;BME280;30157;55.512;37.764;2023-03-18T09:36:38;101827.25;;;12.82;16.20
44198;BME280;30157;55.512;37.764;2023-03-18T09:39:04;101850.72;;;12.83;15.89
44198;BME280;30157;55.512;37.764;2023-03-18T09:44:16;101848.38;;;13.48;16.02
44198;BME280;30157;55.512;37.764;2023-03-18T09:49:52;101846.16;;;12.27;16.67
44198;BME280;30157;55.512;37.764;2023-03-18T09:52:36;101832.94;;;12.18;16.57
44198;BME280;30157;55.512;37.764;2023-03-18T09:57:37;101833.78;;;11.04;16.52
44198;BME280;30157;55.512;37.764;2023-03-18T10:00:18;101791.59;;;10.47;17.52
44198;BME280;30157;55.512;37.764;2023-03-18T10:05:52;101772.44;;;11.10;16.20
44198;BME280;30157;55.512;37.764;2023-03-18T10:16:29;101816.78;;;10.50;16.44
44198;BME280;30157;55.512;37.764;2023-03-18T10:18:55;101760.75;;;9.96;17.47
44198;BME280;30157;55.512;37.764;2023-03-18T10:21:42;101798.97;;;10.32;17.20
44198;BME280;30157;55.512;37.764;2023-03-18T10:26:51;101803.66;;;10.15;18.48
44198;BME280;30157;55.512;37.764;2023-03-18T10:32:34;101768.66;;;9.70;18.20
44198;BME280;30157;55.512;37.764;2023-03-18T10:38:06;101779.75;;;9.66;18.39
44198;BME280;30157;55.512;37.764;2023-03-18T10:40:38;101797.03;;;9.65;18.72
44198;BME280;30157;55.512;37.764;2023-03-18T10:43:17;101778.66;;;9.57;18.83
44198;BME280;30157;55.512;37.764;2023-03-18T10:45:45;101794.94;;;9.53;18.98
44198;BME280;30157;55.512;37.764;2023-03-18T10:48:30;101789.53;;;9.18;18.44
44198;BME280;30157;55.512;37.764;2023-03-18T10:53:50;101742.78;;;8.38;19.70
44198;BME280;30157;55.512;37.764;2023-03-18T10:56:19;101771.44;;;8.93;20.25
44198;BME280;30157;55.512;37.764;2023-03-18T10:58:46;101774.84;;;9.19;20.11
44198;BME280;30157;55.512;37.764;2023-03-18T11:01:14;101772.59;;;9.30;19.63
44198;BME280;30157;55.512;37.764;2023-03-18T11:03:51;101776.56;;;9.46;19.69
44198;BME280;30157;55.512;37.764;2023-03-18T11:06:28;101755.69;;;9.41;19.40
44198;BME280;30157;55.512;37.764;2023-03-18T11:09:05;101765.31;;;9.74;20.13
44198;BME280;30157;55.512;37.764;2023-03-18T11:11:33;101764.97;;;9.92;20.70
44198;BME280;30157;55.512;37.764;2023-03-18T11:14:01;101759.84;;;9.65;19.40
44198;BME280;30157;55.512;37.764;2023-03-18T11:19:30;101758.28;;;9.70;19.53
44198;BME280;30157;55.512;37.764;2023-03-18T11:22:08;101757.69;;;9.50;19.70
44198;BME280;30157;55.512;37.764;2023-03-18T11:24:39;101754.72;;;9.37;19.88
44198;BME280;30157;55.512;37.764;2023-03-18T11:29:48;101581.81;;;8.21;19.44
44198;BME280;30157;55.512;37.764;2023-03-18T11:32:33;101727.97;;;8.84;19.35
44198;BME280;30157;55.512;37.764;2023-03-18T11:35:06;101736.44;;;8.78;19.93
44198;BME280;30157;55.512;37.764;2023-03-18T11:37:34;101669.47;;;8.37;19.35
44198;BME280;30157;55.512;37.764;2023-03-18T11:42:39;101732.59;;;8.93;19.22
44198;BME280;30157;55.512;37.764;2023-03-18T11:47:47;101750.81;;;9.23;18.98
44198;BME280;30157;55.512;37.764;2023-03-18T11:50:18;101726.03;;;9.04;18.10
44198;BME280;30157;55.512;37.764;2023-03-18T11:52:52;101654.69;;;8.59;17.85
44198;BME280;30157;55.512;37.764;2023-03-18T11:55:32;101741.19;;;9.19;18.22
44198;BME280;30157;55.512;37.764;2023-03-18T12:00:36;101743.38;;;9.34;18.91
44198;BME280;30157;55.512;37.764;2023-03-18T12:03:32;101731.66;;;9.75;18.56
44198;BME280;30157;55.512;37.764;2023-03-18T12:06:22;101726.66;;;9.82;16.82
44198;BME280;30157;55.512;37.764;2023-03-18T12:14:30;101723.25;;;9.84;17.87
44198;BME280;30157;55.512;37.764;2023-03-18T12:17:14;101682.16;;;9.98;16.79
44198;BME280;30157;55.512;37.764;2023-03-18T12:29:00;101714.81;;;10.90;16.56
44198;BME280;30157;55.512;37.764;2023-03-18T12:31:40;101716.69;;;11.34;15.33
44198;BME280;30157;55.512;37.764;2023-03-18T12:37:32;101711.00;;;12.39;14.70
44198;BME280;30157;55.512;37.764;2023-03-18T12:40:50;101710.78;;;12.77;13.94
44198;BME280;30157;55.512;37.764;2023-03-18T12:45:56;101697.38;;;13.11;13.87
44198;BME280;30157;55.512;37.764;2023-03-18T12:48:32;101704.53;;;13.90;14.00
44198;BME280;30157;55.512;37.764;2023-03-18T12:51:07;101617.59;;;13.21;13.08
44198;BME280;30157;55.512;37.764;2023-03-18T12:53:36;101704.97;;;14.31;12.81
44198;BME280;30157;55.512;37.764;2023-03-18T12:56:11;101699.44;;;14.01;13.25
44198;BME280;30157;55.512;37.764;2023-03-18T13:04:18;101678.25;;;14.59;12.53
44198;BME280;30157;55.512;37.764;2023-03-18T13:07:02;101684.72;;;14.09;12.64
44198;BME280;30157;55.512;37.764;2023-03-18T13:12:19;101672.38;;;13.93;13.37
44198;BME280;30157;55.512;37.764;2023-03-18T13:15:10;101676.25;;;14.34;13.74
44198;BME280;30157;55.512;37.764;2023-03-18T13:17:41;101601.16;;;14.08;13.97
44198;BME280;30157;55.512;37.764;2023-03-18T13:20:19;101671.75;;;15.28;13.54
44198;BME280;30157;55.512;37.764;2023-03-18T13:23:10;101670.69;;;14.93;13.35
44198;BME280;30157;55.512;37.764;2023-03-18T13:31:58;101664.47;;;14.77;13.48
44198;BME280;30157;55.512;37.764;2023-03-18T13:42:56;101624.84;;;12.79;14.55
44198;BME280;30157;55.512;37.764;2023-03-18T13:45:29;101640.81;;;12.46;14.89
44198;BME280;30157;55.512;37.764;2023-03-18T13:47:59;101634.78;;;11.99;15.14
44198;BME280;30157;55.512;37.764;2023-03-18T13:52:57;101551.09;;;10.48;15.30
44198;BME280;30157;55.512;37.764;2023-03-18T13:55:29;101655.66;;;10.10;15.52
44198;BME280;30157;55.512;37.764;2023-03-18T14:00:44;101641.31;;;9.91;16.44
44198;BME280;30157;55.512;37.764;2023-03-18T14:05:50;101622.19;;;10.91;15.95
44198;BME280;30157;55.512;37.764;2023-03-18T14:13:42;101517.19;;;5.86;19.94
44198;BME280;30157;55.512;37.764;2023-03-18T14:16:16;101607.84;;;5.97;20.75
44198;BME280;30157;55.512;37.764;2023-03-18T14:21:44;101624.81;;;5.72;20.53
44198;BME280;30157;55.512;37.764;2023-03-18T14:29:38;101591.78;;;5.25;20.58
44198;BME280;30157;55.512;37.764;2023-03-18T14:32:27;101622.91;;;5.29;20.75
44198;BME280;30157;55.512;37.764;2023-03-18T14:34:54;101618.81;;;5.15;20.91
44198;BME280;30157;55.512;37.764;2023-03-18T14:37:28;101596.56;;;4.97;21.05
44198;BME280;30157;55.512;37.764;2023-03-18T14:40:02;101568.81;;;4.72;21.56
44198;BME280;30157;55.512;37.764;2023-03-18T14:45:17;101620.09;;;4.87;21.63
44198;BME280;30157;55.512;37.764;2023-03-18T14:47:49;101586.38;;;4.63;21.50
44198;BME280;30157;55.512;37.764;2023-03-18T14:50:38;101610.84;;;4.73;21.56
44198;BME280;30157;55.512;37.764;2023-03-18T14:53:20;101616.56;;;4.67;21.48
44198;BME280;30157;55.512;37.764;2023-03-18T14:55:50;101611.09;;;4.59;21.90
44198;BME280;30157;55.512;37.764;2023-03-18T14:58:18;101609.38;;;4.60;21.88